createdAt,value
2017-09-25T00:02:20.199Z,91.44
2017-09-25T00:04:47.886Z,91.42
2017-09-25T00:07:15.496Z,91.47
2017-09-25T00:09:43.201Z,91.50
2017-09-25T00:12:10.867Z,91.54
2017-09-25T00:14:38.446Z,91.57
2017-09-25T00:17:06.059Z,91.54
2017-09-25T00:19:33.703Z,91.54
2017-09-25T00:22:01.616Z,91.51
2017-09-25T00:24:29.249Z,91.46
2017-09-25T00:26:56.840Z,91.47
2017-09-25T00:29:24.432Z,91.61
2017-09-25T00:31:52.036Z,91.60
2017-09-25T00:34:19.617Z,91.61
2017-09-25T00:36:47.257Z,91.63
2017-09-25T00:39:14.836Z,91.50
2017-09-25T00:41:42.411Z,91.47
2017-09-25T00:44:10.120Z,91.37
2017-09-25T00:46:37.721Z,91.29
2017-09-25T00:49:05.603Z,91.28
2017-09-25T00:51:33.246Z,91.24
2017-09-25T00:54:01.127Z,91.20
2017-09-25T00:56:28.787Z,91.19
2017-09-25T00:58:56.400Z,91.22
2017-09-25T01:01:36.204Z,91.26
2017-09-25T01:04:15.850Z,91.28
2017-09-25T01:06:43.475Z,91.21
2017-09-25T01:09:11.055Z,91.22
2017-09-25T01:11:38.939Z,91.15
2017-09-25T01:14:06.561Z,91.16
2017-09-25T01:16:34.141Z,91.21
2017-09-25T01:19:01.760Z,91.31
2017-09-25T01:21:29.362Z,91.30
2017-09-25T01:23:56.948Z,91.17
2017-09-25T01:26:24.569Z,91.03
2017-09-25T01:28:52.492Z,91.01
2017-09-25T01:31:20.129Z,91.23
2017-09-25T01:33:48.008Z,91.31
2017-09-25T01:36:15.584Z,91.18
2017-09-25T01:38:43.196Z,91.35
2017-09-25T01:41:10.773Z,91.39
2017-09-25T01:43:38.402Z,91.41
2017-09-25T01:46:05.979Z,91.42
2017-09-25T01:48:33.883Z,91.44
2017-09-25T01:51:01.496Z,91.45
2017-09-25T01:53:29.066Z,91.41
2017-09-25T01:55:56.687Z,91.25
2017-09-25T01:58:24.287Z,91.10
2017-09-25T02:00:51.866Z,91.11
2017-09-25T02:03:19.480Z,91.05
2017-09-25T02:05:47.069Z,90.92
2017-09-25T02:08:14.700Z,90.89
2017-09-25T02:10:42.287Z,90.83
2017-09-25T02:13:10.208Z,90.83
2017-09-25T02:15:38.367Z,90.72
2017-09-25T02:18:05.965Z,90.73
2017-09-25T02:20:33.636Z,90.86
2017-09-25T02:23:01.215Z,90.92
2017-09-25T02:25:29.146Z,90.91
2017-09-25T02:27:57.016Z,90.87
2017-09-25T02:30:24.631Z,90.91
2017-09-25T02:32:52.269Z,90.93
2017-09-25T02:35:19.838Z,90.20
2017-09-25T02:37:47.500Z,89.82
2017-09-25T02:40:15.120Z,89.86
2017-09-25T02:42:42.704Z,89.69
2017-09-25T02:45:10.332Z,89.66
2017-09-25T02:47:37.923Z,89.39
2017-09-25T02:50:05.556Z,89.26
2017-09-25T02:52:33.175Z,89.50
2017-09-25T02:55:00.775Z,89.46
2017-09-25T02:57:28.403Z,89.59
2017-09-25T02:59:55.994Z,89.79
2017-09-25T03:02:23.588Z,89.76
2017-09-25T03:04:51.230Z,89.98
2017-09-25T03:07:18.812Z,90.13
2017-09-25T03:09:46.438Z,90.19
2017-09-25T03:12:14.015Z,90.10
2017-09-25T03:14:41.594Z,90.14
2017-09-25T03:17:09.199Z,90.27
2017-09-25T03:19:36.796Z,90.28
2017-09-25T03:22:04.416Z,90.29
2017-09-25T03:24:32.015Z,90.24
2017-09-25T03:26:59.604Z,90.23
2017-09-25T03:29:27.234Z,90.18
2017-09-25T03:31:54.818Z,90.30
2017-09-25T03:34:22.458Z,90.30
2017-09-25T03:36:50.043Z,90.30
2017-09-25T03:39:17.706Z,90.29
2017-09-25T03:41:45.671Z,90.33
2017-09-25T03:44:13.264Z,90.36
2017-09-25T03:46:40.891Z,90.28
2017-09-25T03:49:08.481Z,90.30
2017-09-25T03:51:36.098Z,90.34
2017-09-25T03:54:03.719Z,90.41
2017-09-25T03:56:31.300Z,90.47
2017-09-25T03:58:59.216Z,90.36
2017-09-25T04:01:27.084Z,90.24
2017-09-25T04:03:54.671Z,89.94
2017-09-25T04:06:22.609Z,89.57
2017-09-25T04:08:50.199Z,89.58
2017-09-25T04:11:17.821Z,89.61
2017-09-25T04:13:45.417Z,89.69
2017-09-25T04:16:13.027Z,89.73
2017-09-25T04:18:40.658Z,89.82
2017-09-25T04:21:08.587Z,89.84
2017-09-25T04:23:36.240Z,89.83
2017-09-25T04:26:03.815Z,89.80
2017-09-25T04:28:31.397Z,89.90
2017-09-25T04:30:59.014Z,89.88
2017-09-25T04:33:26.907Z,89.86
2017-09-25T04:35:54.543Z,89.97
2017-09-25T04:38:22.121Z,89.84
2017-09-25T04:40:49.739Z,89.79
2017-09-25T04:43:17.343Z,89.52
2017-09-25T04:45:44.921Z,89.37
2017-09-25T04:48:12.550Z,88.99
2017-09-25T04:50:40.131Z,88.88
2017-09-25T04:53:08.003Z,88.36
2017-09-25T04:55:35.618Z,87.72
2017-09-25T04:58:03.204Z,88.20
2017-09-25T05:00:30.820Z,88.11
2017-09-25T05:02:58.400Z,88.26
2017-09-25T05:05:26.328Z,88.33
2017-09-25T05:07:53.943Z,87.95
2017-09-25T05:10:21.552Z,88.29
2017-09-25T05:12:49.176Z,87.78
2017-09-25T05:15:16.772Z,88.01
2017-09-25T05:17:44.364Z,88.01
2017-09-25T05:20:11.972Z,87.99
2017-09-25T05:22:39.552Z,87.15
2017-09-25T05:25:07.328Z,86.64
2017-09-25T05:27:34.914Z,86.81
2017-09-25T05:30:02.508Z,87.31
2017-09-25T05:32:30.136Z,86.92
2017-09-25T05:34:57.728Z,87.21
2017-09-25T05:37:25.360Z,86.90
2017-09-25T05:39:52.948Z,86.60
2017-09-25T05:42:20.855Z,87.16
2017-09-25T05:44:48.475Z,87.00
2017-09-25T05:47:16.127Z,86.43
2017-09-25T05:49:43.822Z,86.22
2017-09-25T05:52:11.398Z,85.85
2017-09-25T05:54:38.991Z,85.69
2017-09-25T05:57:06.935Z,85.63
2017-09-25T05:59:34.525Z,85.48
2017-09-25T06:02:02.231Z,86.51
2017-09-25T06:04:29.934Z,85.84
2017-09-25T06:06:57.692Z,85.77
2017-09-25T06:09:25.342Z,85.91
2017-09-25T06:11:52.940Z,86.42
2017-09-25T06:14:20.576Z,86.49
2017-09-25T06:16:48.177Z,86.34
2017-09-25T06:19:16.123Z,86.66
2017-09-25T06:21:43.731Z,85.97
2017-09-25T06:24:11.323Z,85.37
2017-09-25T06:26:39.717Z,85.18
2017-09-25T06:29:07.305Z,85.03
2017-09-25T06:31:34.887Z,84.81
2017-09-25T06:34:02.526Z,85.38
2017-09-25T06:36:30.111Z,85.85
2017-09-25T06:38:57.766Z,85.21
2017-09-25T06:41:25.354Z,85.33
2017-09-25T06:43:52.936Z,85.17
2017-09-25T06:46:20.544Z,85.44
2017-09-25T06:48:48.177Z,85.50
2017-09-25T06:51:15.804Z,84.99
2017-09-25T06:53:43.407Z,84.25
2017-09-25T06:56:10.995Z,83.44
2017-09-25T06:58:38.941Z,83.83
2017-09-25T07:01:06.521Z,84.72
2017-09-25T07:03:34.151Z,84.89
2017-09-25T07:06:02.016Z,85.04
2017-09-25T07:08:29.612Z,84.00
2017-09-25T07:10:57.256Z,83.57
2017-09-25T07:13:24.835Z,84.15
2017-09-25T07:15:52.456Z,83.66
2017-09-25T07:18:20.075Z,83.08
2017-09-25T07:20:47.703Z,83.01
2017-09-25T07:23:15.327Z,83.50
2017-09-25T07:25:42.925Z,83.85
2017-09-25T07:28:10.561Z,83.94
2017-09-25T07:30:38.151Z,83.67
2017-09-25T07:33:05.749Z,83.69
2017-09-25T07:35:33.595Z,84.30
2017-09-25T07:38:01.208Z,83.57
2017-09-25T07:40:28.835Z,83.92
2017-09-25T07:42:56.452Z,83.79
2017-09-25T07:45:24.322Z,83.67
2017-09-25T07:47:51.979Z,83.87
2017-09-25T07:50:19.566Z,83.30
2017-09-25T07:52:47.157Z,83.68
2017-09-25T07:55:14.771Z,84.07
2017-09-25T07:57:42.364Z,83.61
2017-09-25T08:00:09.956Z,83.07
2017-09-25T08:02:37.578Z,83.14
2017-09-25T08:05:05.205Z,82.85
2017-09-25T08:07:32.871Z,83.05
2017-09-25T08:10:00.525Z,83.42
2017-09-25T08:12:28.116Z,83.14
2017-09-25T08:14:55.737Z,83.57
2017-09-25T08:17:23.346Z,83.02
2017-09-25T08:19:50.980Z,81.61
2017-09-25T08:22:18.574Z,80.92
2017-09-25T08:24:46.239Z,80.73
2017-09-25T08:27:13.941Z,80.52
2017-09-25T08:29:41.551Z,80.04
2017-09-25T08:32:09.505Z,80.04
2017-09-25T08:34:37.129Z,81.29
2017-09-25T08:37:05.043Z,81.56
2017-09-25T08:39:32.688Z,82.81
2017-09-25T08:42:00.297Z,83.48
2017-09-25T08:44:27.937Z,83.68
2017-09-25T08:46:55.556Z,84.02
2017-09-25T08:49:23.144Z,84.46
2017-09-25T08:51:50.773Z,84.80
2017-09-25T08:54:18.729Z,84.70
2017-09-25T08:56:46.367Z,85.25
2017-09-25T08:59:13.960Z,84.75
2017-09-25T09:01:41.553Z,84.83
2017-09-25T09:04:09.179Z,84.40
2017-09-25T09:06:36.772Z,83.79
2017-09-25T09:09:04.461Z,83.95
2017-09-25T09:11:32.076Z,83.45
2017-09-25T09:13:59.710Z,83.39
2017-09-25T09:16:27.340Z,83.19
2017-09-25T09:18:54.932Z,82.75
2017-09-25T09:21:22.933Z,82.70
2017-09-25T09:23:50.525Z,82.96
2017-09-25T09:26:18.127Z,82.90
2017-09-25T09:28:46.077Z,82.87
2017-09-25T09:31:13.943Z,82.76
2017-09-25T09:33:41.563Z,82.95
2017-09-25T09:36:09.570Z,83.11
2017-09-25T09:38:37.161Z,82.88
2017-09-25T09:41:04.775Z,82.26
2017-09-25T09:43:32.359Z,82.48
2017-09-25T09:45:59.995Z,82.30
2017-09-25T09:48:27.598Z,81.32
2017-09-25T09:50:55.188Z,80.99
2017-09-25T09:53:22.807Z,80.29
2017-09-25T09:55:50.406Z,81.09
2017-09-25T09:58:18.037Z,81.68
2017-09-25T10:00:45.629Z,82.36
2017-09-25T10:03:13.239Z,82.87
2017-09-25T10:05:41.137Z,81.83
2017-09-25T10:08:08.757Z,82.24
2017-09-25T10:10:36.396Z,82.99
2017-09-25T10:13:04.147Z,83.57
2017-09-25T10:15:31.742Z,84.23
2017-09-25T10:17:59.348Z,83.84
2017-09-25T10:20:26.935Z,84.43
2017-09-25T10:22:54.860Z,83.76
2017-09-25T10:25:22.458Z,84.10
2017-09-25T10:27:50.050Z,83.37
2017-09-25T10:30:17.676Z,83.38
2017-09-25T10:32:45.281Z,83.42
2017-09-25T10:35:12.923Z,83.88
2017-09-25T10:37:40.848Z,84.30
2017-09-25T10:40:08.469Z,84.80
2017-09-25T10:42:36.374Z,85.18
2017-09-25T10:45:03.975Z,85.49
2017-09-25T10:47:31.642Z,85.79
2017-09-25T10:49:59.255Z,85.91
2017-09-25T10:52:26.901Z,85.89
2017-09-25T10:54:54.520Z,86.04
2017-09-25T10:57:22.111Z,85.79
2017-09-25T10:59:50.008Z,84.83
2017-09-25T11:02:17.591Z,84.11
2017-09-25T11:04:45.187Z,84.68
2017-09-25T11:07:12.812Z,84.65
2017-09-25T11:09:40.404Z,84.92
2017-09-25T11:12:08.324Z,85.01
2017-09-25T11:14:35.932Z,84.34
2017-09-25T11:17:03.539Z,83.30
2017-09-25T11:19:31.180Z,83.67
2017-09-25T11:21:58.764Z,83.71
2017-09-25T11:24:26.403Z,84.06
2017-09-25T11:26:53.992Z,84.28
2017-09-25T11:29:21.872Z,84.44
2017-09-25T11:31:49.495Z,84.13
2017-09-25T11:34:17.324Z,83.61
2017-09-25T11:36:44.943Z,82.73
2017-09-25T11:39:12.539Z,83.05
2017-09-25T11:41:40.126Z,83.08
2017-09-25T11:44:07.729Z,82.21
2017-09-25T11:46:35.316Z,80.34
2017-09-25T11:49:02.950Z,80.35
2017-09-25T11:51:30.937Z,80.10
2017-09-25T11:53:58.516Z,79.42
2017-09-25T11:56:26.141Z,77.43
2017-09-25T11:58:53.734Z,75.31
2017-09-25T12:01:21.382Z,74.63
2017-09-25T12:03:48.969Z,74.08
2017-09-25T12:06:16.575Z,71.99
2017-09-25T12:08:44.241Z,70.39
2017-09-25T12:11:11.844Z,65.27
2017-09-25T12:13:39.482Z,62.80
2017-09-25T12:16:07.073Z,64.23
2017-09-25T12:18:34.648Z,66.25
2017-09-25T12:21:02.260Z,69.65
2017-09-25T12:23:29.845Z,70.58
2017-09-25T12:25:57.522Z,71.52
2017-09-25T12:28:25.117Z,73.68
2017-09-25T12:30:52.709Z,74.67
2017-09-25T12:33:20.340Z,76.23
2017-09-25T12:35:47.925Z,76.97
2017-09-25T12:38:15.550Z,76.50
2017-09-25T12:40:43.477Z,77.32
2017-09-25T12:43:11.063Z,77.79
2017-09-25T12:45:39.306Z,77.98
2017-09-25T12:48:06.970Z,78.54
2017-09-25T12:50:34.649Z,78.48
2017-09-25T12:53:02.234Z,77.73
2017-09-25T12:55:30.171Z,76.75
2017-09-25T12:57:57.788Z,76.11
2017-09-25T13:00:25.392Z,75.12
2017-09-25T13:02:53.027Z,75.02
2017-09-25T13:05:20.650Z,75.69
2017-09-25T13:07:48.489Z,75.82
2017-09-25T13:10:16.115Z,76.17
2017-09-25T13:12:43.727Z,76.19
2017-09-25T13:15:11.352Z,76.60
2017-09-25T13:17:39.042Z,77.51
2017-09-25T13:20:06.648Z,77.03
2017-09-25T13:22:34.268Z,77.48
2017-09-25T13:25:01.867Z,78.00
2017-09-25T13:27:29.492Z,78.15
2017-09-25T13:29:57.095Z,78.81
2017-09-25T13:32:24.685Z,78.55
2017-09-25T13:34:52.296Z,78.45
2017-09-25T13:37:19.900Z,78.20
2017-09-25T13:39:47.873Z,78.27
2017-09-25T13:42:15.772Z,78.41
2017-09-25T13:44:43.402Z,78.57
2017-09-25T13:47:11.300Z,78.63
2017-09-25T13:49:38.919Z,78.61
2017-09-25T13:52:06.841Z,78.91
2017-09-25T13:54:34.453Z,79.03
2017-09-25T13:57:02.092Z,78.51
2017-09-25T14:04:35.336Z,78.74
2017-09-25T14:07:03.011Z,78.73
2017-09-25T14:09:30.659Z,78.38
2017-09-25T14:11:58.582Z,78.68
2017-09-25T14:14:26.193Z,78.45
2017-09-25T14:16:53.836Z,78.91
2017-09-25T14:19:21.455Z,79.18
2017-09-25T14:21:49.630Z,78.22
2017-09-25T14:24:17.520Z,77.44
2017-09-25T14:26:45.112Z,77.68
2017-09-25T14:29:13.039Z,77.52
2017-09-25T14:31:40.808Z,77.32
2017-09-25T14:34:08.430Z,76.99
2017-09-25T14:36:36.106Z,77.58
2017-09-25T14:39:03.840Z,77.52
2017-09-25T14:41:31.770Z,77.43
2017-09-25T14:43:59.562Z,77.07
2017-09-25T14:46:27.482Z,76.99
2017-09-25T14:48:55.067Z,76.64
2017-09-25T14:51:22.707Z,75.83
2017-09-25T14:53:50.356Z,76.21
2017-09-25T14:56:18.013Z,76.02
2017-09-25T14:58:45.876Z,76.41
2017-09-25T15:01:13.799Z,76.98
2017-09-25T15:03:41.668Z,76.17
2017-09-25T15:06:09.263Z,75.70
2017-09-25T15:08:36.888Z,75.59
2017-09-25T15:11:04.504Z,76.09
2017-09-25T15:13:32.129Z,75.72
2017-09-25T15:15:59.768Z,76.09
2017-09-25T15:18:27.475Z,76.22
2017-09-25T15:20:55.832Z,76.83
2017-09-25T15:23:24.420Z,76.74
2017-09-25T15:25:53.802Z,76.88
2017-09-25T15:28:21.503Z,77.90
2017-09-25T15:30:49.158Z,77.73
2017-09-25T15:33:16.892Z,78.16
2017-09-25T15:35:44.515Z,78.30
2017-09-25T15:38:13.231Z,78.17
2017-09-25T15:40:40.999Z,78.42
2017-09-25T15:43:08.989Z,78.65
2017-09-25T15:45:36.769Z,78.68
2017-09-25T15:48:04.439Z,78.52
2017-09-25T15:50:32.040Z,78.29
2017-09-25T15:53:01.155Z,78.86
2017-09-25T15:55:28.756Z,78.55
2017-09-25T15:57:56.534Z,78.91
2017-09-25T16:00:24.199Z,79.21
2017-09-25T16:02:52.049Z,79.33
2017-09-25T16:05:19.962Z,79.70
2017-09-25T16:07:47.657Z,79.60
2017-09-25T16:10:15.300Z,79.50
2017-09-25T16:12:42.911Z,79.28
2017-09-25T16:15:10.543Z,79.26
2017-09-25T16:17:38.208Z,79.62
2017-09-25T16:20:05.791Z,79.54
2017-09-25T16:22:33.780Z,79.71
2017-09-25T16:25:01.400Z,79.82
2017-09-25T16:27:29.010Z,80.10
2017-09-25T16:29:56.693Z,80.18
2017-09-25T16:32:24.298Z,80.14
2017-09-25T16:34:51.939Z,80.28
2017-09-25T16:37:19.542Z,80.42
2017-09-25T16:39:47.127Z,80.60
2017-09-25T16:42:14.732Z,80.43
2017-09-25T16:44:42.386Z,80.51
2017-09-25T16:47:10.030Z,80.66
2017-09-25T16:49:38.562Z,80.98
2017-09-25T16:52:06.197Z,80.93
2017-09-25T16:54:33.993Z,80.98
2017-09-25T16:57:01.599Z,81.42
2017-09-25T16:59:29.262Z,81.51
2017-09-25T17:01:56.958Z,81.69
2017-09-25T17:04:25.032Z,81.73
2017-09-25T17:06:53.116Z,81.96
2017-09-25T17:09:20.861Z,82.34
2017-09-25T17:11:48.507Z,82.43
2017-09-25T17:14:16.638Z,82.38
2017-09-25T17:16:44.662Z,82.57
2017-09-25T17:19:12.378Z,82.96
2017-09-25T17:21:40.018Z,82.90
2017-09-25T17:24:07.674Z,83.17
2017-09-25T17:26:35.309Z,83.19
2017-09-25T17:29:02.936Z,83.42
2017-09-25T17:31:30.558Z,83.35
2017-09-25T17:33:58.170Z,83.67
2017-09-25T17:36:25.842Z,83.69
2017-09-25T17:38:53.594Z,83.54
2017-09-25T17:41:21.211Z,83.80
2017-09-25T17:43:49.286Z,83.80
2017-09-25T17:46:16.988Z,83.97
2017-09-25T17:48:44.671Z,83.97
2017-09-25T17:51:12.280Z,83.79
2017-09-25T17:53:39.872Z,84.16
2017-09-25T17:56:07.488Z,84.14
2017-09-25T17:58:35.301Z,84.54
2017-09-25T18:01:02.934Z,84.51
2017-09-25T18:03:30.560Z,84.35
2017-09-25T18:05:58.185Z,84.35
2017-09-25T18:08:25.845Z,84.53
2017-09-25T18:10:53.476Z,84.44
2017-09-25T18:13:21.167Z,84.22
2017-09-25T18:15:48.784Z,83.95
2017-09-25T18:18:16.396Z,84.17
2017-09-25T18:20:44.437Z,84.57
2017-09-25T18:23:12.040Z,84.57
2017-09-25T18:25:39.719Z,84.73
2017-09-25T18:28:07.322Z,84.38
2017-09-25T18:30:34.924Z,84.17
2017-09-25T18:33:02.602Z,84.14
2017-09-25T18:35:30.431Z,84.35
2017-09-25T18:37:58.113Z,84.43
2017-09-25T18:40:25.789Z,84.83
2017-09-25T18:42:53.385Z,84.63
2017-09-25T18:45:21.043Z,84.65
2017-09-25T18:47:48.637Z,84.44
2017-09-25T18:50:16.338Z,84.19
2017-09-25T18:52:43.944Z,84.35
2017-09-25T18:55:11.546Z,84.40
2017-09-25T18:57:39.580Z,84.03
2017-09-25T19:00:07.171Z,84.15
2017-09-25T19:02:35.121Z,84.21
2017-09-25T19:05:02.807Z,84.23
2017-09-25T19:07:30.428Z,84.47
2017-09-25T19:09:58.066Z,84.58
2017-09-25T19:12:25.671Z,84.33
2017-09-25T19:14:53.332Z,84.26
2017-09-25T19:17:20.968Z,84.24
2017-09-25T19:19:48.589Z,84.17
2017-09-25T19:22:16.521Z,84.19
2017-09-25T19:24:44.133Z,84.13
2017-09-25T19:27:12.229Z,84.29
2017-09-25T19:29:39.870Z,84.56
2017-09-25T19:32:07.478Z,84.63
2017-09-25T19:34:35.090Z,84.63
2017-09-25T19:37:02.700Z,84.65
2017-09-25T19:39:32.567Z,84.72
2017-09-25T19:42:00.245Z,84.46
2017-09-25T19:44:27.856Z,84.28
2017-09-25T19:46:56.343Z,84.61
2017-09-25T19:49:34.673Z,84.52
2017-09-25T19:52:02.294Z,84.61
2017-09-25T19:54:30.839Z,84.61
2017-09-25T19:56:58.874Z,84.68
2017-09-25T19:59:26.975Z,84.41
2017-09-25T20:01:55.012Z,84.39
2017-09-25T20:04:22.658Z,84.41
2017-09-25T20:06:50.267Z,84.30
2017-09-25T20:09:17.931Z,84.19
2017-09-25T20:11:45.760Z,84.35
2017-09-25T20:14:19.018Z,84.47
2017-09-25T20:19:55.965Z,84.39
2017-09-25T20:22:23.616Z,84.34
2017-09-25T20:24:51.212Z,84.18
2017-09-25T20:27:18.841Z,84.02
2017-09-25T20:29:46.448Z,84.25
2017-09-25T20:32:14.067Z,84.23
2017-09-25T20:34:41.671Z,84.41
2017-09-25T20:37:09.260Z,84.14
2017-09-25T20:39:36.881Z,84.33
2017-09-25T20:42:04.480Z,84.06
2017-09-25T20:44:32.089Z,84.26
2017-09-25T20:46:59.692Z,84.59
2017-09-25T20:49:27.357Z,84.50
2017-09-25T20:51:54.942Z,84.58
2017-09-25T20:54:22.619Z,84.30
2017-09-25T20:56:50.588Z,84.26
2017-09-25T20:59:18.183Z,84.43
2017-09-25T21:01:45.880Z,84.31
2017-09-25T21:04:13.472Z,84.12
2017-09-25T21:06:41.066Z,84.18
2017-09-25T21:09:08.695Z,84.19
2017-09-25T21:11:36.281Z,84.35
2017-09-25T21:14:03.920Z,84.57
2017-09-25T21:16:31.838Z,84.44
2017-09-25T21:18:59.581Z,84.59
2017-09-25T21:21:27.201Z,84.47
2017-09-25T21:23:54.983Z,84.44
2017-09-25T21:26:26.061Z,84.46
2017-09-25T21:28:53.659Z,84.29
2017-09-25T21:31:21.249Z,84.30
2017-09-25T21:33:48.890Z,84.45
2017-09-25T21:36:16.530Z,84.57
2017-09-25T21:38:44.169Z,84.41
2017-09-25T21:41:11.789Z,84.52
2017-09-25T21:43:40.294Z,84.49
2017-09-25T21:46:07.944Z,84.56
2017-09-25T21:48:35.530Z,84.73
2017-09-25T21:51:03.151Z,84.40
2017-09-25T21:53:30.735Z,84.61
2017-09-25T21:55:58.702Z,84.50
2017-09-25T21:58:26.357Z,84.56
2017-09-25T22:00:53.943Z,84.59
2017-09-25T22:03:21.624Z,84.79
2017-09-25T22:05:49.245Z,84.97
2017-09-25T22:08:16.867Z,84.80
2017-09-25T22:10:44.516Z,84.70
2017-09-25T22:13:12.109Z,84.85
2017-09-25T22:15:39.731Z,84.83
2017-09-25T22:18:07.571Z,84.59
2017-09-25T22:20:35.164Z,84.70
2017-09-25T22:23:02.789Z,84.74
2017-09-25T22:25:30.414Z,84.76
2017-09-25T22:27:58.071Z,84.72
2017-09-25T22:30:25.670Z,84.92
2017-09-25T22:32:53.290Z,85.06
2017-09-25T22:35:20.913Z,85.00
2017-09-25T22:37:48.494Z,85.17
2017-09-25T22:40:16.131Z,84.83
2017-09-25T22:42:43.736Z,84.49
2017-09-25T22:45:11.330Z,84.54
2017-09-25T22:47:38.955Z,84.66
2017-09-25T22:50:06.535Z,84.45
2017-09-25T22:52:34.175Z,84.70
2017-09-25T22:55:01.792Z,84.55
2017-09-25T22:57:29.397Z,84.66
2017-09-25T22:59:57.015Z,84.48
2017-09-25T23:02:24.988Z,84.65
2017-09-25T23:08:02.293Z,84.82
2017-09-25T23:10:29.914Z,85.00
2017-09-25T23:12:57.567Z,84.95
2017-09-25T23:15:25.156Z,84.98
2017-09-25T23:17:52.785Z,84.79
2017-09-25T23:20:20.372Z,84.54
2017-09-25T23:22:48.005Z,84.61
2017-09-25T23:25:15.947Z,84.45
2017-09-25T23:27:43.530Z,84.45
2017-09-25T23:30:26.025Z,84.57
2017-09-25T23:32:53.875Z,84.61
2017-09-25T23:35:21.496Z,84.72
2017-09-25T23:37:49.091Z,84.84
2017-09-25T23:40:16.715Z,84.97
2017-09-25T23:42:44.292Z,85.16
2017-09-25T23:45:11.880Z,85.18
2017-09-25T23:47:39.491Z,85.35
2017-09-25T23:50:07.423Z,85.42
2017-09-25T23:52:35.065Z,85.45
2017-09-25T23:55:02.647Z,85.55
2017-09-25T23:57:30.239Z,85.17
2017-09-25T23:59:57.883Z,85.00
